createdAt,value
2022-12-06T00:01:35.682Z,21.60
2022-12-06T00:04:06.905Z,21.50
2022-12-06T00:06:48.125Z,21.50
2022-12-06T00:09:19.577Z,21.00
2022-12-06T00:11:48.189Z,20.80
2022-12-06T00:14:17.539Z,20.80
2022-12-06T00:16:45.928Z,20.20
2022-12-06T00:19:19.247Z,20.80
2022-12-06T00:21:47.623Z,21.70
2022-12-06T00:24:18.192Z,19.70
2022-12-06T00:26:47.738Z,19.90
2022-12-06T00:29:22.735Z,19.00
2022-12-06T00:31:51.041Z,19.00
2022-12-06T00:34:19.205Z,18.70
2022-12-06T00:36:47.907Z,18.10
2022-12-06T00:39:18.404Z,17.90
2022-12-06T00:41:46.372Z,18.90
2022-12-06T00:44:14.455Z,18.10
2022-12-06T00:46:42.409Z,17.70
2022-12-06T00:49:10.355Z,18.30
2022-12-06T00:51:39.594Z,18.50
2022-12-06T00:54:08.608Z,17.90
2022-12-06T00:56:37.301Z,17.70
2022-12-06T00:59:06.125Z,17.60
2022-12-06T01:01:36.448Z,17.10
2022-12-06T01:04:07.233Z,17.60
2022-12-06T01:06:37.950Z,17.90
2022-12-06T01:09:09.318Z,19.10
2022-12-06T01:11:37.933Z,18.50
2022-12-06T01:14:06.491Z,19.00
2022-12-06T01:16:35.260Z,19.80
2022-12-06T01:19:05.588Z,18.80
2022-12-06T01:21:34.142Z,18.80
2022-12-06T01:24:02.116Z,18.70
2022-12-06T01:26:33.324Z,18.40
2022-12-06T01:29:02.524Z,18.20
2022-12-06T01:31:37.714Z,20.00
2022-12-06T01:34:14.117Z,20.00
2022-12-06T01:39:11.268Z,20.90
2022-12-06T01:41:40.222Z,19.20
2022-12-06T01:44:38.983Z,18.90
2022-12-06T01:47:32.216Z,19.20
2022-12-06T01:50:18.476Z,19.70
2022-12-06T01:52:54.399Z,20.00
2022-12-06T01:55:25.679Z,20.20
2022-12-06T01:57:58.519Z,20.10
2022-12-06T02:00:26.796Z,19.30
2022-12-06T02:03:00.725Z,20.10
2022-12-06T02:05:31.637Z,19.20
2022-12-06T02:08:02.256Z,18.90
2022-12-06T02:10:31.511Z,18.40
2022-12-06T02:12:59.499Z,19.40
2022-12-06T02:15:45.055Z,18.90
2022-12-06T02:18:21.852Z,19.00
2022-12-06T02:21:06.783Z,20.00
2022-12-06T02:24:19.253Z,19.10
2022-12-06T02:27:18.181Z,18.00
2022-12-06T02:30:18.747Z,18.70
2022-12-06T02:33:23.428Z,18.00
2022-12-06T02:36:02.797Z,18.50
2022-12-06T02:38:43.624Z,17.50
2022-12-06T02:41:27.583Z,17.40
2022-12-06T02:44:03.198Z,18.80
2022-12-06T02:46:34.757Z,19.10
2022-12-06T02:49:06.723Z,19.30
2022-12-06T02:51:37.383Z,17.70
2022-12-06T02:54:08.842Z,16.50
2022-12-06T02:56:36.824Z,16.50
2022-12-06T02:59:05.797Z,16.60
2022-12-06T03:01:41.197Z,17.30
2022-12-06T03:04:15.311Z,18.40
2022-12-06T03:06:52.044Z,17.40
2022-12-06T03:09:49.774Z,18.00
2022-12-06T03:12:45.874Z,17.70
2022-12-06T03:15:34.388Z,17.60
2022-12-06T03:18:15.997Z,17.80
2022-12-06T03:20:56.560Z,15.80
2022-12-06T03:23:32.020Z,16.50
2022-12-06T03:26:02.200Z,16.10
2022-12-06T03:28:30.831Z,16.10
2022-12-06T03:31:03.505Z,16.20
2022-12-06T03:33:33.668Z,16.40
2022-12-06T03:36:02.471Z,15.90
2022-12-06T03:38:37.390Z,16.00
2022-12-06T03:41:07.655Z,15.70
2022-12-06T03:43:35.728Z,15.70
2022-12-06T03:46:17.938Z,15.30
2022-12-06T03:48:54.896Z,15.80
2022-12-06T03:51:27.281Z,15.00
2022-12-06T03:53:59.693Z,17.10
2022-12-06T03:56:28.311Z,15.20
2022-12-06T03:58:56.341Z,15.20
2022-12-06T04:01:24.594Z,15.20
2022-12-06T04:03:52.611Z,15.60
2022-12-06T04:06:20.543Z,15.00
2022-12-06T04:08:48.588Z,14.70
2022-12-06T04:11:16.555Z,16.00
2022-12-06T04:13:44.596Z,16.10
2022-12-06T04:16:31.190Z,16.70
2022-12-06T04:18:59.164Z,17.60
2022-12-06T04:21:32.718Z,18.20
2022-12-06T04:24:02.744Z,18.40
2022-12-06T04:26:30.697Z,17.40
2022-12-06T04:29:17.095Z,15.50
2022-12-06T04:32:04.374Z,14.90
2022-12-06T04:34:51.131Z,15.20
2022-12-06T04:37:37.990Z,15.70
2022-12-06T04:40:07.277Z,16.00
2022-12-06T04:42:53.703Z,16.50
2022-12-06T04:45:21.780Z,17.60
2022-12-06T04:47:49.776Z,17.60
2022-12-06T04:50:17.747Z,17.00
2022-12-06T04:52:46.317Z,17.70
2022-12-06T04:55:14.475Z,17.40
2022-12-06T04:57:42.434Z,18.20
2022-12-06T05:00:11.407Z,18.10
2022-12-06T05:02:39.763Z,17.70
2022-12-06T05:05:08.232Z,18.50
2022-12-06T05:07:36.500Z,17.10
2022-12-06T05:10:04.907Z,18.70
2022-12-06T05:12:32.897Z,19.20
2022-12-06T05:15:00.827Z,19.10
2022-12-06T05:17:29.905Z,19.10
2022-12-06T05:19:58.136Z,19.20
2022-12-06T05:22:26.259Z,17.70
2022-12-06T05:24:55.143Z,22.70
2022-12-06T05:27:24.561Z,30.30
2022-12-06T05:29:52.561Z,17.50
2022-12-06T05:32:20.755Z,18.00
2022-12-06T05:34:49.044Z,17.30
2022-12-06T05:37:17.220Z,17.30
2022-12-06T05:39:45.128Z,17.50
2022-12-06T05:42:20.404Z,16.60
2022-12-06T05:44:50.393Z,17.30
2022-12-06T05:47:19.384Z,17.80
2022-12-06T05:49:47.292Z,19.00
2022-12-06T05:52:15.244Z,19.30
2022-12-06T05:54:43.210Z,18.80
2022-12-06T05:57:11.314Z,18.80
2022-12-06T05:59:40.509Z,19.90
2022-12-06T06:02:11.409Z,19.40
2022-12-06T06:04:39.488Z,20.20
2022-12-06T06:07:07.437Z,21.70
2022-12-06T06:09:35.369Z,22.60
2022-12-06T06:12:06.843Z,19.50
2022-12-06T06:14:38.119Z,19.40
2022-12-06T06:17:06.558Z,20.90
2022-12-06T06:19:36.132Z,20.90
2022-12-06T06:22:06.281Z,18.70
2022-12-06T06:24:42.343Z,18.90
2022-12-06T06:27:14.363Z,18.90
2022-12-06T06:29:45.505Z,19.20
2022-12-06T06:32:13.741Z,18.50
2022-12-06T06:34:42.193Z,19.30
2022-12-06T06:37:10.968Z,20.60
2022-12-06T06:39:40.357Z,20.20
2022-12-06T06:42:08.855Z,19.70
2022-12-06T06:44:37.163Z,19.10
2022-12-06T06:47:06.097Z,18.20
2022-12-06T06:49:34.177Z,19.90
2022-12-06T06:52:04.090Z,18.70
2022-12-06T06:54:32.061Z,20.20
2022-12-06T06:57:03.020Z,19.40
2022-12-06T06:59:31.281Z,20.20
2022-12-06T07:01:59.973Z,21.90
2022-12-06T07:04:28.317Z,19.70
2022-12-06T07:06:59.669Z,19.40
2022-12-06T07:09:28.500Z,17.30
2022-12-06T07:11:57.500Z,16.00
2022-12-06T07:14:25.446Z,17.50
2022-12-06T07:16:53.898Z,17.60
2022-12-06T07:19:22.755Z,18.10
2022-12-06T07:21:50.922Z,18.40
2022-12-06T07:24:19.811Z,19.50
2022-12-06T07:26:47.851Z,18.10
2022-12-06T07:29:17.484Z,18.50
2022-12-06T07:31:46.490Z,17.50
2022-12-06T07:34:14.689Z,17.80
2022-12-06T07:36:42.752Z,18.60
2022-12-06T07:39:14.689Z,18.00
2022-12-06T07:42:03.463Z,18.10
2022-12-06T07:45:02.846Z,22.70
2022-12-06T07:47:40.411Z,23.20
2022-12-06T07:50:17.661Z,22.70
2022-12-06T07:52:48.938Z,19.00
2022-12-06T07:55:19.434Z,17.70
2022-12-06T07:57:48.342Z,16.40
2022-12-06T08:00:20.889Z,17.00
2022-12-06T08:02:49.284Z,18.20
2022-12-06T08:05:17.736Z,18.90
2022-12-06T08:07:46.126Z,19.10
2022-12-06T08:10:14.450Z,18.20
2022-12-06T08:12:44.956Z,18.50
2022-12-06T08:15:15.412Z,16.60
2022-12-06T08:17:43.462Z,17.40
2022-12-06T08:20:13.069Z,16.70
2022-12-06T08:22:41.351Z,16.40
2022-12-06T08:25:09.990Z,17.80
2022-12-06T08:27:38.284Z,20.20
2022-12-06T08:30:07.205Z,16.30
2022-12-06T08:32:35.231Z,15.40
2022-12-06T08:35:04.014Z,15.00
2022-12-06T08:37:34.375Z,14.80
2022-12-06T08:40:03.001Z,15.40
2022-12-06T08:42:31.923Z,16.60
2022-12-06T08:45:00.192Z,16.20
2022-12-06T08:47:28.337Z,16.90
2022-12-06T08:49:58.907Z,16.70
2022-12-06T08:52:28.962Z,17.50
2022-12-06T08:54:57.034Z,15.10
2022-12-06T08:57:25.488Z,15.90
2022-12-06T08:59:54.528Z,16.90
2022-12-06T09:02:22.791Z,16.70
2022-12-06T09:04:52.176Z,16.50
2022-12-06T09:07:21.265Z,17.00
2022-12-06T09:09:49.983Z,16.80
2022-12-06T09:12:18.195Z,16.00
2022-12-06T09:14:47.027Z,16.70
2022-12-06T09:17:15.094Z,16.70
2022-12-06T09:19:43.446Z,15.60
2022-12-06T09:22:12.081Z,17.40
2022-12-06T09:24:42.545Z,15.60
2022-12-06T09:27:11.984Z,14.60
2022-12-06T09:29:41.077Z,14.40
2022-12-06T09:32:09.210Z,15.60
2022-12-06T09:34:39.026Z,15.20
2022-12-06T09:37:13.188Z,14.20
2022-12-06T09:39:47.432Z,14.80
2022-12-06T09:42:35.736Z,13.70
2022-12-06T09:45:03.674Z,13.00
2022-12-06T09:47:50.617Z,13.10
2022-12-06T09:50:28.321Z,13.80
2022-12-06T09:53:21.650Z,13.40
2022-12-06T09:56:12.929Z,14.40
2022-12-06T09:59:06.300Z,16.70
2022-12-06T10:01:37.340Z,18.30
2022-12-06T10:04:27.012Z,17.10
2022-12-06T10:07:25.808Z,17.40
2022-12-06T10:10:21.220Z,13.00
2022-12-06T10:13:13.528Z,13.60
2022-12-06T10:15:59.495Z,13.50
2022-12-06T10:18:58.079Z,12.70
2022-12-06T10:21:50.182Z,13.80
2022-12-06T10:24:41.173Z,14.20
2022-12-06T10:27:28.527Z,19.40
2022-12-06T10:30:12.227Z,14.90
2022-12-06T10:32:43.241Z,16.70
2022-12-06T10:35:44.245Z,13.80
2022-12-06T10:38:25.135Z,14.90
2022-12-06T10:41:02.003Z,14.40
2022-12-06T10:43:36.545Z,15.20
2022-12-06T10:46:43.738Z,15.70
2022-12-06T10:49:32.491Z,16.40
2022-12-06T10:52:35.007Z,16.30
2022-12-06T10:55:10.391Z,15.10
2022-12-06T10:58:10.140Z,15.90
2022-12-06T11:00:50.658Z,16.40
2022-12-06T11:03:23.438Z,18.50
2022-12-06T11:06:17.781Z,18.00
2022-12-06T11:09:00.103Z,16.20
2022-12-06T11:11:37.094Z,14.40
2022-12-06T11:14:30.548Z,16.20
2022-12-06T11:17:22.010Z,16.80
2022-12-06T11:19:54.858Z,16.20
2022-12-06T11:22:46.710Z,16.20
2022-12-06T11:25:25.936Z,14.70
2022-12-06T11:28:44.136Z,14.60
2022-12-06T11:31:30.956Z,14.20
2022-12-06T11:34:01.345Z,14.00
2022-12-06T11:36:31.101Z,14.30
2022-12-06T11:39:00.462Z,14.60
2022-12-06T11:41:34.327Z,13.20
2022-12-06T11:44:03.245Z,14.20
2022-12-06T11:46:31.489Z,17.70
2022-12-06T11:49:24.438Z,15.20
2022-12-06T11:51:53.683Z,15.10
2022-12-06T11:55:04.119Z,14.60
2022-12-06T11:58:23.990Z,14.60
2022-12-06T12:00:56.112Z,16.80
2022-12-06T12:03:35.557Z,16.60
2022-12-06T12:06:19.982Z,14.70
2022-12-06T12:09:14.372Z,14.90
2022-12-06T12:11:43.305Z,13.80
2022-12-06T12:14:27.248Z,13.70
2022-12-06T12:17:03.300Z,13.40
2022-12-06T12:19:44.510Z,12.60
2022-12-06T12:22:32.325Z,13.30
2022-12-06T12:25:19.561Z,12.90
2022-12-06T12:27:53.076Z,12.80
2022-12-06T12:30:24.504Z,14.60
2022-12-06T12:33:14.165Z,13.50
2022-12-06T12:35:52.364Z,15.40
2022-12-06T12:38:28.913Z,17.20
2022-12-06T12:41:19.555Z,13.40
2022-12-06T12:44:28.521Z,15.50
2022-12-06T12:46:54.517Z,16.40
2022-12-06T12:49:28.712Z,15.10
2022-12-06T12:51:57.444Z,15.80
2022-12-06T12:54:33.096Z,14.30
2022-12-06T12:57:07.345Z,14.60
2022-12-06T12:59:40.480Z,16.00
2022-12-06T13:02:23.065Z,16.00
2022-12-06T13:05:24.915Z,17.50
2022-12-06T13:07:53.226Z,20.20
2022-12-06T13:10:32.386Z,21.60
2022-12-06T13:13:17.624Z,18.40
2022-12-06T13:15:53.444Z,20.80
2022-12-06T13:18:27.394Z,18.80
2022-12-06T13:21:02.676Z,21.20
2022-12-06T13:23:39.088Z,19.00
2022-12-06T13:26:26.732Z,18.50
2022-12-06T13:29:04.262Z,20.10
2022-12-06T13:31:37.066Z,19.70
2022-12-06T13:34:37.601Z,18.30
2022-12-06T13:37:30.526Z,17.00
2022-12-06T13:39:59.299Z,19.00
2022-12-06T13:42:37.545Z,18.50
2022-12-06T13:45:26.659Z,28.60
2022-12-06T13:47:54.674Z,18.90
2022-12-06T13:50:23.657Z,16.40
2022-12-06T13:52:52.125Z,18.00
2022-12-06T13:55:26.302Z,17.90
2022-12-06T14:00:34.862Z,15.90
2022-12-06T14:03:24.151Z,16.40
2022-12-06T14:06:15.536Z,16.30
2022-12-06T14:08:57.651Z,17.70
2022-12-06T14:11:35.148Z,16.20
2022-12-06T14:14:24.425Z,15.30
2022-12-06T14:16:59.281Z,16.00
2022-12-06T14:19:47.491Z,16.90
2022-12-06T14:22:31.835Z,14.50
2022-12-06T14:25:19.307Z,14.70
2022-12-06T14:27:51.430Z,16.20
2022-12-06T14:30:26.256Z,14.50
2022-12-06T14:35:31.035Z,15.70
2022-12-06T14:41:03.150Z,15.80
2022-12-06T14:43:33.415Z,16.10
2022-12-06T14:46:05.668Z,15.30
2022-12-06T14:48:53.194Z,14.80
2022-12-06T14:51:27.564Z,15.00
2022-12-06T14:53:56.042Z,15.60
2022-12-06T14:56:35.429Z,16.20
2022-12-06T14:59:12.047Z,16.40
2022-12-06T15:01:52.069Z,16.10
2022-12-06T15:04:35.286Z,18.30
2022-12-06T15:07:04.993Z,17.70
2022-12-06T15:09:49.279Z,18.10
2022-12-06T15:12:46.807Z,15.70
2022-12-06T15:15:36.524Z,17.00
2022-12-06T15:18:12.045Z,15.10
2022-12-06T15:20:40.525Z,16.60
2022-12-06T15:24:01.145Z,15.60
2022-12-06T15:26:29.865Z,16.50
2022-12-06T15:28:59.869Z,15.30
2022-12-06T15:31:30.363Z,16.40
2022-12-06T15:34:00.144Z,16.90
2022-12-06T15:36:34.007Z,17.20
2022-12-06T15:39:02.064Z,18.90
2022-12-06T15:41:30.322Z,23.20
2022-12-06T15:43:58.337Z,15.40
2022-12-06T15:46:30.214Z,14.30
2022-12-06T15:49:01.837Z,16.30
2022-12-06T15:51:30.353Z,16.00
2022-12-06T15:54:00.383Z,16.60
2022-12-06T15:56:30.247Z,16.20
2022-12-06T15:58:58.441Z,17.30
2022-12-06T16:01:31.758Z,17.10
2022-12-06T16:04:00.619Z,16.70
2022-12-06T16:06:29.501Z,16.70
2022-12-06T16:08:59.512Z,16.00
2022-12-06T16:11:29.851Z,20.10
2022-12-06T16:13:57.989Z,15.90
2022-12-06T16:16:27.294Z,17.50
2022-12-06T16:18:55.366Z,17.80
2022-12-06T16:21:24.208Z,18.20
2022-12-06T16:24:16.473Z,18.20
2022-12-06T16:26:46.496Z,17.60
2022-12-06T16:29:25.036Z,18.60
2022-12-06T16:31:56.431Z,19.50
2022-12-06T16:34:25.835Z,19.00
2022-12-06T16:36:53.891Z,17.70
2022-12-06T16:39:21.930Z,18.50
2022-12-06T16:41:52.340Z,19.90
2022-12-06T16:44:21.581Z,21.90
2022-12-06T16:46:49.799Z,23.50
2022-12-06T16:49:45.674Z,24.50
2022-12-06T16:52:15.646Z,23.10
2022-12-06T16:54:44.969Z,23.20
2022-12-06T16:57:13.670Z,25.90
2022-12-06T16:59:43.237Z,25.80
2022-12-06T17:02:30.206Z,24.60
2022-12-06T17:05:06.114Z,23.00
2022-12-06T17:07:36.164Z,25.00
2022-12-06T17:10:06.647Z,23.70
2022-12-06T17:12:34.953Z,24.00
2022-12-06T17:15:03.421Z,20.70
2022-12-06T17:17:31.796Z,21.60
2022-12-06T17:20:00.315Z,23.20
2022-12-06T17:22:28.753Z,22.90
2022-12-06T17:24:56.835Z,24.20
2022-12-06T17:27:25.088Z,27.80
2022-12-06T17:29:54.293Z,23.90
2022-12-06T17:32:22.404Z,24.40
2022-12-06T17:34:50.578Z,24.30
2022-12-06T17:37:19.707Z,25.60
2022-12-06T17:39:50.109Z,25.30
2022-12-06T17:42:38.960Z,26.10
2022-12-06T17:45:07.656Z,25.70
2022-12-06T17:47:35.810Z,23.80
2022-12-06T17:50:05.613Z,23.80
2022-12-06T17:52:33.893Z,23.10
2022-12-06T17:55:02.657Z,21.70
2022-12-06T17:57:31.242Z,21.40
2022-12-06T17:59:59.181Z,22.60
2022-12-06T18:02:28.036Z,23.30
2022-12-06T18:04:59.953Z,23.40
2022-12-06T18:07:28.650Z,25.60
2022-12-06T18:09:58.378Z,25.60
2022-12-06T18:12:29.287Z,26.00
2022-12-06T18:15:00.540Z,29.70
2022-12-06T18:17:31.182Z,26.20
2022-12-06T18:20:00.472Z,30.10
2022-12-06T18:22:28.692Z,33.00
2022-12-06T18:24:56.807Z,33.60
2022-12-06T18:27:24.834Z,35.10
2022-12-06T18:29:53.405Z,36.10
2022-12-06T18:32:21.404Z,34.50
2022-12-06T18:34:49.346Z,35.40
2022-12-06T18:37:17.239Z,32.90
2022-12-06T18:39:45.644Z,34.00
2022-12-06T18:42:14.396Z,33.20
2022-12-06T18:44:42.320Z,29.50
2022-12-06T18:47:10.814Z,33.90
2022-12-06T18:49:39.424Z,41.10
2022-12-06T18:52:07.500Z,42.80
2022-12-06T18:54:36.837Z,39.60
2022-12-06T18:57:04.872Z,37.30
2022-12-06T18:59:33.244Z,35.50
2022-12-06T19:02:02.370Z,34.90
2022-12-06T19:04:30.891Z,33.20
2022-12-06T19:06:58.862Z,31.60
2022-12-06T19:09:26.927Z,34.10
2022-12-06T19:11:55.081Z,34.10
2022-12-06T19:14:25.024Z,32.70
2022-12-06T19:16:53.243Z,31.00
2022-12-06T19:19:26.978Z,31.20
2022-12-06T19:21:57.327Z,35.60
2022-12-06T19:24:26.884Z,35.40
2022-12-06T19:27:00.216Z,32.20
2022-12-06T19:29:29.663Z,31.10
2022-12-06T19:31:57.844Z,34.10
2022-12-06T19:34:27.682Z,38.60
2022-12-06T19:36:58.119Z,34.30
2022-12-06T19:39:26.997Z,33.50
2022-12-06T19:42:13.745Z,34.40
2022-12-06T19:44:44.738Z,33.90
2022-12-06T19:47:13.858Z,33.60
2022-12-06T19:49:42.591Z,36.60
2022-12-06T19:52:13.580Z,34.20
2022-12-06T19:54:42.380Z,34.40
2022-12-06T19:57:12.115Z,33.10
2022-12-06T19:59:40.109Z,35.90
2022-12-06T20:02:12.605Z,33.40
2022-12-06T20:04:42.158Z,34.00
2022-12-06T20:07:10.907Z,35.70
2022-12-06T20:09:39.815Z,41.50
2022-12-06T20:12:09.449Z,36.30
2022-12-06T20:14:46.143Z,31.70
2022-12-06T20:17:20.669Z,31.10
2022-12-06T20:19:51.544Z,31.50
2022-12-06T20:22:19.947Z,30.80
2022-12-06T20:24:48.441Z,30.00
2022-12-06T20:27:18.362Z,30.00
2022-12-06T20:29:46.629Z,30.60
2022-12-06T20:32:16.633Z,33.00
2022-12-06T20:34:45.872Z,30.40
2022-12-06T20:37:13.759Z,32.50
2022-12-06T20:39:42.247Z,32.30
2022-12-06T20:42:10.282Z,33.60
2022-12-06T20:44:38.384Z,33.50
2022-12-06T20:47:06.448Z,33.30
2022-12-06T20:49:34.667Z,34.50
2022-12-06T20:52:03.840Z,34.80
2022-12-06T20:54:32.459Z,36.40
2022-12-06T20:57:08.105Z,36.60
2022-12-06T20:59:37.024Z,37.40
2022-12-06T21:02:06.725Z,36.30
2022-12-06T21:04:36.968Z,37.20
2022-12-06T21:07:05.658Z,32.20
2022-12-06T21:09:33.708Z,34.10
2022-12-06T21:12:02.356Z,33.60
2022-12-06T21:14:30.815Z,31.80
2022-12-06T21:16:59.117Z,28.90
2022-12-06T21:19:28.134Z,29.90
2022-12-06T21:22:01.119Z,29.10
2022-12-06T21:24:31.278Z,29.80
2022-12-06T21:26:59.635Z,30.40
2022-12-06T21:29:30.995Z,29.00
2022-12-06T21:32:02.497Z,29.40
2022-12-06T21:34:31.676Z,30.10
2022-12-06T21:37:00.465Z,27.90
2022-12-06T21:39:28.632Z,27.80
2022-12-06T21:41:57.422Z,26.80
2022-12-06T21:44:25.480Z,25.50
2022-12-06T21:46:55.938Z,24.60
2022-12-06T21:49:25.271Z,24.90
2022-12-06T21:52:01.036Z,26.30
2022-12-06T21:54:31.395Z,27.10
2022-12-06T21:57:00.427Z,25.50
2022-12-06T21:59:28.855Z,25.70
2022-12-06T22:01:57.572Z,26.80
2022-12-06T22:04:26.174Z,27.70
2022-12-06T22:06:54.658Z,28.10
2022-12-06T22:09:23.031Z,28.40
2022-12-06T22:11:51.148Z,24.30
2022-12-06T22:14:19.408Z,25.70
2022-12-06T22:16:50.572Z,27.00
2022-12-06T22:19:18.750Z,30.60
2022-12-06T22:21:47.941Z,29.30
2022-12-06T22:24:16.150Z,28.90
2022-12-06T22:26:44.603Z,28.20
2022-12-06T22:29:12.876Z,27.60
2022-12-06T22:31:41.004Z,26.80
2022-12-06T22:34:09.860Z,27.70
2022-12-06T22:36:37.977Z,26.30
2022-12-06T22:39:07.937Z,27.20
2022-12-06T22:41:35.872Z,27.90
2022-12-06T22:44:07.209Z,28.80
2022-12-06T22:46:36.787Z,30.50
2022-12-06T22:49:06.476Z,31.10
2022-12-06T22:51:36.947Z,33.10
2022-12-06T22:54:09.301Z,30.30
2022-12-06T22:56:39.744Z,33.90
2022-12-06T22:59:09.564Z,33.00
2022-12-06T23:01:39.495Z,33.90
2022-12-06T23:04:08.114Z,33.60
2022-12-06T23:06:36.866Z,33.20
2022-12-06T23:09:06.810Z,33.40
2022-12-06T23:11:36.508Z,30.90
2022-12-06T23:14:04.764Z,34.40
2022-12-06T23:16:33.212Z,34.70
2022-12-06T23:19:03.581Z,33.80
2022-12-06T23:21:35.250Z,35.50
2022-12-06T23:24:09.812Z,33.00
2022-12-06T23:26:45.607Z,35.10
2022-12-06T23:29:15.103Z,31.90
2022-12-06T23:31:45.132Z,32.60
2022-12-06T23:34:22.754Z,33.70
2022-12-06T23:36:50.783Z,33.40
2022-12-06T23:39:19.590Z,33.40
2022-12-06T23:41:47.923Z,31.90
2022-12-06T23:44:15.909Z,29.80
2022-12-06T23:46:45.725Z,28.40
2022-12-06T23:49:19.751Z,27.10
2022-12-06T23:51:48.679Z,27.80
2022-12-06T23:54:17.774Z,29.60
2022-12-06T23:56:46.981Z,30.70
2022-12-06T23:59:16.405Z,30.00
